Date,TemperatureHighF,TemperatureAvgF,TemperatureLowF,DewpointHighF,DewpointAvgF,DewpointLowF,HumidityHigh,HumidityAvg,HumidityLow,PressureMaxIn,PressureMinIn,WindSpeedMaxMPH,WindSpeedAvgMPH,GustSpeedMaxMPH,PrecipitationSumIn
2013-1-1,37.9,31.1,21.1,26.6,18.9,6.4,76,61,47,29.91,29.71,14,1,15,0.01
2013-1-2,30.7,20.7,12.4,14.3,8.1,1.5,74,58,45,30.08,29.87,15,1,15,0.00
2013-1-3,24.2,14.7,5.6,11.2,0.2,-6.9,78,53,28,30.12,30.00,11,0,11,0.00
2013-1-4,38.0,26.1,13.5,22.9,17.1,9.2,91,70,47,29.99,29.81,14,1,14,0.04
2013-1-5,40.9,30.1,21.1,23.4,19.8,17.5,87,67,44,30.25,29.85,14,1,14,0.06
2013-1-6,41.8,31.0,21.3,31.0,25.5,18.3,96,81,57,30.22,29.91,10,0,10,0.08
2013-1-7,40.3,29.3,21.0,28.9,24.0,19.0,97,82,51,30.45,29.95,12,1,12,0.03
2013-1-8,46.1,31.8,18.6,31.5,25.3,16.4,99,79,49,30.45,30.25,14,1,14,0.01
2013-1-9,43.1,34.0,20.8,37.3,28.9,19.1,96,82,63,30.43,30.00,10,0,10,0.00
2013-1-10,45.7,39.5,29.5,30.8,23.3,20.6,73,53,37,30.67,30.04,16,1,16,0.00
2013-1-11,41.3,33.6,25.1,36.0,28.0,21.0,98,80,65,30.60,30.20,5,0,5,0.16
2013-1-12,45.8,41.1,36.3,44.6,40.8,35.8,100,99,93,30.22,30.09,4,0,4,0.04
2013-1-13,50.4,45.9,41.6,50.4,45.9,41.6,100,100,99,30.14,29.99,5,0,5,0.02
2013-1-14,60.5,51.4,41.5,55.3,44.5,29.8,100,80,41,30.23,29.88,9,0,9,0.00
2013-1-15,42.1,37.3,33.1,36.2,30.8,26.0,98,78,57,30.37,30.20,5,0,5,0.05
2013-1-16,35.9,33.5,32.5,33.6,31.9,26.8,100,94,70,30.22,29.79,4,0,4,0.35
2013-1-17,41.6,35.2,30.4,33.6,28.3,17.5,100,78,53,30.08,29.84,14,1,14,0.17
2013-1-18,30.9,22.6,16.1,19.0,3.1,-8.3,72,44,27,30.47,30.03,16,1,16,0.00
2013-1-19,46.8,36.1,16.1,32.8,24.5,7.5,84,63,46,30.40,29.90,12,1,13,0.02
2013-1-20,54.5,42.8,28.7,35.0,26.0,7.3,75,53,32,29.93,29.54,17,1,22,0.00
2013-1-21,29.1,25.6,20.0,22.0,10.1,3.1,91,54,34,30.09,29.77,7,0,7,0.00
2013-1-22,25.4,20.4,12.3,22.8,6.8,-5.7,93,59,30,30.17,29.73,14,1,14,0.01
2013-1-23,16.1,10.9,6.3,0.4,-7.1,-11.9,63,44,30,30.14,30.06,14,1,15,0.00
2013-1-24,18.8,10.8,2.6,-5.4,-9.9,-13.1,53,39,25,30.22,30.04,19,1,19,0.00
2013-1-25,25.3,16.2,7.4,12.7,-5.7,-12.2,81,39,21,30.33,30.05,9,0,10,0.00
2013-1-26,24.7,17.0,10.2,12.9,2.9,-8.8,85,57,29,30.35,29.98,13,1,13,0.00
2013-1-27,29.4,19.6,11.4,4.5,0.6,-2.5,60,44,27,30.46,30.22,13,0,13,0.00
2013-1-28,32.5,23.3,12.8,29.2,13.5,0.9,97,69,29,30.54,29.99,7,0,7,0.00
2013-1-29,34.1,31.5,28.1,32.7,30.0,26.9,99,94,88,30.18,29.99,4,0,4,0.08
2013-1-30,57.6,48.1,32.9,56.9,47.7,32.7,100,99,94,30.15,29.49,15,1,16,0.16
2013-1-31,61.6,48.8,31.2,59.0,38.0,13.9,99,69,35,29.59,28.98,22,2,22,0.61
2013-2-1,33.2,28.5,22.1,15.1,7.9,0.2,54,42,28,30.08,29.59,14,0,14,0.00
2013-2-2,31.0,24.3,16.4,14.6,7.2,-0.9,67,48,32,30.24,30.04,0,0,0,0.00
2013-2-3,30.1,25.3,19.9,23.7,20.1,14.5,91,80,59,30.05,29.71,0,0,0,0.02
2013-2-4,30.6,24.5,19.4,20.1,10.6,3.1,87,57,34,30.08,29.70,12,0,12,0.00
2013-2-5,27.2,24.7,21.3,24.1,14.9,8.1,92,67,55,30.08,29.92,0,0,0,0.00
2013-2-6,38.5,30.2,25.1,26.3,19.9,4.1,95,68,37,30.31,29.90,11,0,11,0.03
2013-2-7,30.9,24.0,16.2,15.7,6.3,0.0,67,48,28,30.52,30.28,9,0,9,0.00
2013-2-8,32.5,30.3,22.7,32.1,27.0,14.5,100,88,66,30.79,29.59,15,2,16,0.00
2013-2-10,19.5,15.5,13.1,17.0,12.6,9.8,90,88,87,30.37,30.34,0,0,0,0.00
2013-2-11,41.5,29.4,11.6,41.5,28.6,8.2,100,97,86,30.42,29.59,4,0,5,0.27
2013-2-12,43.8,37.2,28.7,40.2,29.6,24.9,100,76,52,29.87,29.60,13,1,13,0.98
2013-2-13,43.5,32.3,23.3,27.2,24.0,20.0,93,73,44,29.86,29.68,6,0,6,0.12
2013-2-14,44.2,33.9,26.7,30.0,24.2,18.1,97,70,37,30.00,29.70,9,0,9,0.03
2013-2-15,48.8,35.1,22.5,36.7,29.9,20.8,100,83,51,30.30,29.91,9,0,9,0.00
2013-2-16,35.9,32.9,29.3,33.5,30.6,22.7,100,92,71,30.16,29.66,10,1,11,0.04
2013-2-17,31.5,22.2,17.7,24.5,12.2,-2.0,90,68,37,29.86,29.35,24,3,24,0.00
2013-2-18,32.4,22.3,14.1,4.2,-0.2,-3.7,50,38,25,30.35,29.66,19,3,19,0.10
2013-2-19,47.7,34.4,17.0,40.6,24.7,2.3,100,69,44,30.35,29.57,9,0,9,0.64
2013-2-20,40.5,32.6,25.4,40.5,19.5,7.6,100,61,37,29.79,29.52,17,2,17,0.00
2013-2-21,34.6,27.8,24.1,15.3,13.0,9.7,65,54,38,30.16,29.78,15,2,15,0.00
2013-2-22,37.9,31.1,24.7,26.5,21.9,14.9,83,69,58,30.52,30.16,12,2,12,0.00
2013-2-23,39.5,34.0,30.4,35.0,29.1,25.6,99,83,66,30.52,29.88,6,0,6,0.44
2013-2-24,38.5,35.1,30.7,38.5,34.8,30.2,100,99,97,29.88,29.65,15,3,17,1.49
2013-2-25,42.8,34.1,28.4,31.4,29.2,26.2,98,83,55,30.28,29.87,11,1,12,0.13
2013-2-26,47.7,34.9,24.7,33.2,27.6,23.5,98,77,47,30.33,30.14,10,0,10,0.00
2013-2-27,41.2,39.7,36.6,40.9,39.0,31.0,100,97,82,30.57,29.54,22,2,22,1.08
2013-2-28,46.1,38.2,34.1,39.2,35.8,33.0,100,92,71,29.83,29.51,5,0,5,0.00
2013-3-1,42.2,37.7,33.7,35.7,30.8,26.7,98,77,58,29.77,29.51,13,1,13,0.00
2013-3-2,44.6,38.0,33.1,29.8,26.7,24.5,76,64,49,30.10,29.60,11,0,11,0.00
2013-3-3,44.5,36.4,31.8,31.3,27.3,23.9,93,70,51,29.78,29.53,7,0,7,0.00
2013-3-4,41.8,34.8,29.1,29.5,23.2,19.6,91,63,44,29.93,29.56,14,0,14,0.00
2013-3-5,45.7,36.4,30.6,32.6,27.2,21.6,96,70,54,30.07,29.71,12,1,12,0.00
2013-3-6,40.8,37.1,31.6,36.5,33.6,29.9,97,87,70,30.07,30.00,23,6,23,0.06
2013-3-7,35.9,33.1,31.6,33.5,32.1,31.0,99,96,83,30.33,29.94,22,6,24,0.71
2013-3-8,37.2,33.0,30.9,33.6,30.8,26.0,100,92,68,30.10,29.88,24,2,24,0.16
2013-3-9,42.1,34.3,27.6,31.0,27.8,25.2,96,78,62,30.34,30.10,17,4,18,0.77
2013-3-10,44.5,34.2,26.4,33.8,29.6,25.7,98,85,58,30.39,30.31,6,1,10,0.06
2013-3-11,51.1,39.8,32.2,38.8,35.6,30.7,98,86,61,30.33,30.16,7,0,9,0.00
2013-3-12,52.8,46.1,37.3,52.8,45.6,37.0,100,98,87,30.17,29.72,10,0,10,0.62
2013-3-13,54.4,43.6,29.8,49.4,32.0,18.0,100,68,32,30.05,29.68,11,1,11,0.01
2013-3-14,38.2,30.5,23.3,25.7,15.5,4.7,87,55,36,30.31,29.70,17,1,17,0.00
2013-3-15,42.3,30.9,20.0,26.5,11.7,3.5,74,47,20,30.31,29.64,13,1,13,0.00
2013-3-16,41.3,33.7,27.0,26.4,16.5,4.9,80,52,23,29.85,29.67,7,0,7,0.00
2013-3-17,43.1,31.1,23.0,21.2,13.1,0.8,76,50,25,30.30,29.85,16,1,16,0.00
2013-3-18,41.8,29.2,18.3,26.6,11.2,-0.2,89,49,25,30.45,30.24,9,1,9,0.00
2013-3-19,37.5,33.3,28.8,37.0,32.5,26.6,98,97,89,30.29,29.54,16,3,16,0.84
2013-3-20,41.2,31.6,24.8,27.8,20.3,15.6,92,65,36,29.81,29.68,13,2,13,0.19
2013-3-21,38.8,30.8,23.5,28.8,24.3,18.3,96,78,51,29.82,29.60,9,1,9,0.04
2013-3-22,43.6,33.9,26.7,28.8,20.6,13.9,96,61,31,29.74,29.59,14,1,14,0.08
2013-3-23,44.6,35.7,28.2,22.7,18.3,14.4,72,51,31,29.84,29.63,16,2,16,0.00
2013-3-24,53.1,38.2,28.2,28.0,22.2,17.7,81,54,29,29.82,29.71,11,1,11,0.00
2013-3-25,48.9,37.6,30.0,34.8,29.2,24.9,90,73,43,29.76,29.49,19,4,19,0.00
2013-3-26,52.6,40.5,32.1,33.1,26.3,18.2,94,61,31,29.81,29.49,18,2,18,0.02
2013-3-27,58.0,41.7,26.9,30.1,23.3,18.6,80,51,26,29.85,29.72,12,1,12,0.00
2013-3-28,51.0,42.0,36.6,36.8,33.3,25.7,95,73,43,30.00,29.84,13,2,13,0.02
2013-3-29,60.7,45.1,30.1,35.8,31.0,23.6,94,62,27,30.02,29.94,12,1,12,0.00
2013-3-30,62.4,46.8,32.4,32.0,26.3,13.0,81,50,17,30.08,29.98,15,1,15,0.00
2013-3-31,62.1,44.0,26.4,43.0,28.0,19.0,95,61,20,30.12,29.73,9,0,9,0.08
2013-4-1,65.0,48.2,34.9,46.7,38.7,10.8,100,73,33,29.79,29.51,13,1,13,0.25
2013-4-2,44.2,35.1,27.8,17.5,12.0,5.5,58,39,24,29.95,29.78,22,2,22,0.00
2013-4-3,49.4,37.3,29.8,15.1,11.6,7.4,51,36,20,30.16,29.93,16,3,17,0.00
2013-4-4,59.6,40.8,27.3,30.0,17.6,9.0,75,43,15,30.29,30.06,10,1,10,0.00
2013-4-5,61.5,46.4,36.9,34.6,27.9,17.8,78,53,22,30.06,29.61,14,1,14,0.00
2013-4-6,50.4,38.8,28.5,26.0,12.1,1.8,69,36,15,30.33,29.86,17,2,17,0.00
2013-4-7,56.7,41.0,24.4,41.8,28.6,15.8,91,65,23,30.33,30.02,17,2,17,0.00
2013-4-8,71.5,52.9,41.1,46.2,40.3,34.5,99,67,28,30.09,29.95,9,1,9,0.00
2013-4-9,78.8,57.3,46.2,52.2,43.4,37.1,95,65,28,30.08,29.84,13,1,13,0.00
2013-4-10,68.6,52.7,43.6,49.3,45.1,41.2,99,78,46,30.01,29.84,8,1,8,0.15
2013-4-11,56.9,48.1,43.6,46.5,41.6,33.8,99,80,51,30.14,29.80,11,1,11,0.02
2013-4-12,43.6,39.7,37.5,39.9,36.2,30.0,100,88,64,30.14,29.74,18,3,18,0.61
2013-4-13,53.9,42.7,37.3,40.0,37.7,33.6,98,84,49,29.93,29.71,17,2,17,0.03
2013-4-14,56.7,44.4,35.0,42.3,32.3,23.1,100,67,34,30.27,29.92,13,1,13,0.00
2013-4-15,62.7,45.5,31.3,38.0,32.1,27.0,88,63,28,30.39,30.20,12,0,12,0.00
2013-4-16,66.3,49.8,34.0,47.9,40.0,33.0,99,73,39,30.40,30.08,11,1,11,0.00
2013-4-17,74.0,59.0,44.2,52.2,40.3,26.6,89,56,20,30.32,30.05,11,1,11,0.00
2013-4-18,70.1,51.5,35.2,44.7,34.1,23.9,98,59,23,30.41,30.14,9,1,9,0.00
2013-4-19,74.6,62.0,51.9,62.8,58.1,44.7,100,88,60,30.14,29.69,13,2,13,0.01
2013-4-20,61.6,54.4,45.4,61.6,43.0,24.8,100,70,34,30.19,29.62,14,2,14,0.55
2013-4-21,59.2,43.9,32.9,29.7,23.4,17.5,83,47,23,30.68,30.19,14,1,14,0.00
2013-4-22,56.2,42.1,30.4,35.8,30.9,24.3,93,67,32,30.73,30.57,16,2,16,0.00
2013-4-23,43.2,41.5,38.9,42.3,39.6,31.2,99,93,73,30.59,30.07,17,4,17,0.25
2013-4-24,74.4,52.6,42.2,52.0,45.1,41.8,99,79,39,30.07,29.81,17,2,17,0.02
2013-4-25,69.3,54.9,41.1,51.8,39.4,25.0,96,62,22,30.23,29.84,11,1,11,0.03
2013-4-26,68.9,50.8,40.6,42.1,36.3,28.8,94,60,31,30.44,30.23,13,2,13,0.00
2013-4-27,70.1,50.5,35.2,44.7,35.9,29.3,100,63,26,30.46,30.30,7,0,7,0.00
2013-4-28,74.6,53.1,34.4,40.2,34.2,30.6,97,56,22,30.37,30.23,6,0,6,0.00
2013-4-29,76.0,54.6,41.1,47.3,34.6,18.2,97,55,20,30.28,30.20,12,0,12,0.00
2013-4-30,75.4,53.5,35.9,39.6,29.6,17.4,94,49,13,30.35,30.24,10,0,10,0.00
2013-5-1,74.4,53.0,34.7,40.8,34.7,30.8,92,55,23,30.45,30.35,12,1,12,0.00
2013-5-2,83.0,54.9,38.3,47.0,40.4,34.1,99,66,21,30.47,30.34,13,1,13,0.00
2013-5-3,61.5,48.5,40.8,45.5,41.0,37.8,96,77,52,30.51,30.36,15,2,15,0.00
2013-5-4,64.2,47.3,36.2,45.6,38.3,34.7,99,75,37,30.43,30.30,12,2,12,0.00
2013-5-5,66.3,47.6,32.7,46.0,38.1,31.9,100,74,39,30.31,30.25,11,1,11,0.00
2013-5-6,75.4,54.2,36.9,50.8,44.6,35.3,98,75,36,30.28,30.14,7,0,7,0.00
2013-5-7,79.9,61.5,44.3,57.8,51.3,43.8,100,73,41,30.19,30.09,10,0,10,0.00
2013-5-8,77.4,63.0,49.9,62.5,57.1,49.1,100,83,52,30.18,30.04,10,0,11,0.38
2013-5-9,70.8,61.4,58.4,62.6,59.8,57.8,100,95,65,30.08,29.87,6,0,6,0.29
2013-5-10,82.6,66.1,55.6,59.7,56.2,49.8,100,75,34,29.94,29.88,6,0,6,0.00
2013-5-11,73.5,61.6,56.9,61.9,58.7,52.7,100,91,61,29.93,29.70,9,0,9,0.11
2013-5-12,72.0,60.8,46.5,62.3,52.9,33.6,100,79,40,29.81,29.56,12,0,12,0.04
2013-5-13,63.5,50.6,37.2,36.1,30.4,25.0,91,49,27,30.00,29.81,13,1,13,0.00
2013-5-14,59.5,50.0,38.3,35.1,30.6,23.6,78,49,28,30.05,29.95,11,1,11,0.00
2013-5-15,69.1,51.8,34.0,53.4,39.9,29.9,95,69,25,30.11,29.67,10,1,10,0.01
2013-5-16,83.4,65.5,47.4,52.7,44.1,31.7,100,57,17,29.78,29.63,18,1,18,0.01
2013-5-17,72.0,58.2,46.2,49.4,42.7,35.8,88,59,32,30.21,29.78,13,1,13,0.00
2013-5-18,76.0,57.7,41.1,49.6,43.7,35.3,99,66,25,30.29,30.20,6,0,6,0.00
2013-5-19,76.0,58.7,45.7,55.0,49.0,44.6,99,74,34,30.33,30.22,7,0,7,0.08
2013-5-20,82.4,67.9,55.3,66.0,61.0,55.0,100,81,50,30.22,29.91,0,0,0,0.04
2013-5-21,88.6,64.1,51.9,68.8,59.7,51.6,100,88,49,30.09,29.84,10,0,10,0.17
2013-5-22,69.8,57.8,50.7,63.7,55.6,50.4,100,93,74,30.01,29.88,9,0,9,0.03
2013-5-23,76.5,65.5,56.9,68.2,63.4,56.6,100,93,70,29.92,29.82,7,0,9,0.02
2013-5-24,68.1,62.5,51.9,65.8,61.8,51.4,100,98,85,29.83,29.66,12,0,12,0.73
2013-5-25,52.6,48.7,41.2,51.7,47.9,39.9,99,97,92,29.78,29.68,12,1,12,0.40
2013-5-26,58.4,48.5,39.2,41.8,38.7,34.5,96,71,43,30.09,29.71,16,1,16,0.02
2013-5-27,72.7,57.0,40.2,45.8,38.4,30.5,96,57,24,30.52,30.06,13,1,13,0.00
2013-5-28,79.4,60.3,41.5,56.3,45.0,37.3,99,63,24,30.21,30.15,5,0,5,0.00
2013-5-29,74.4,63.4,57.6,66.3,61.1,56.0,100,93,74,30.18,29.98,5,0,5,1.14
2013-5-30,89.7,74.6,62.7,70.7,66.2,62.7,100,79,43,30.11,30.01,9,0,9,0.01
2013-5-31,95.9,78.1,62.9,70.3,65.8,60.9,100,70,34,30.26,29.96,5,0,5,0.00
2013-6-1,93.8,76.3,63.2,68.5,64.6,60.9,97,70,36,30.36,29.89,7,0,7,0.00
2013-6-2,89.3,72.9,64.2,69.4,64.3,61.7,95,76,46,30.06,29.79,10,0,10,0.00
2013-6-3,71.6,66.3,62.4,69.2,65.1,61.5,100,96,89,30.06,29.76,9,0,9,0.60
2013-6-4,72.0,61.0,49.2,61.2,46.9,40.8,97,63,35,30.07,29.80,12,0,12,0.00
2013-6-5,75.4,62.1,48.0,51.5,46.9,38.8,96,61,30,30.16,30.07,5,0,5,0.00
2013-6-6,77.6,62.8,51.9,56.4,51.7,44.2,99,71,36,30.17,30.09,5,0,5,0.00
2013-6-7,59.3,56.4,54.2,59.0,55.8,53.4,100,98,89,30.24,29.76,9,0,12,3.18
2013-6-8,76.3,65.6,54.5,64.5,59.5,54.5,100,82,60,30.00,29.57,9,0,11,0.66
2013-6-9,81.1,67.8,56.2,60.4,56.4,50.3,99,71,36,30.15,30.00,9,0,9,0.00
2013-6-10,70.3,61.4,54.1,62.6,57.9,53.3,99,89,62,30.18,29.99,5,0,5,1.01
2013-6-11,67.8,60.4,54.5,63.7,59.2,54.2,100,96,81,29.99,29.55,7,0,7,1.93
2013-6-12,70.6,61.6,55.0,59.8,55.4,51.2,100,82,52,29.78,29.53,15,1,15,0.07
2013-6-13,65.5,57.0,51.4,60.9,54.8,50.6,99,93,72,29.80,29.62,12,0,12,0.44
2013-6-14,69.3,59.1,52.5,57.8,53.9,48.8,100,85,54,29.74,29.59,15,1,15,1.61
2013-6-15,79.0,66.6,55.1,56.1,48.8,39.4,94,58,27,29.93,29.73,9,0,9,0.00
2013-6-16,77.4,64.8,51.4,62.2,54.7,47.5,96,73,39,29.93,29.72,4,0,4,0.00
2013-6-17,88.4,70.2,57.2,65.6,60.8,55.5,100,77,35,29.90,29.76,11,0,11,0.04
2013-6-18,82.0,63.7,57.6,66.7,60.5,55.8,100,91,54,30.01,29.86,8,0,8,0.57
2013-6-19,76.0,63.5,55.1,58.8,53.4,44.6,100,74,36,30.14,29.86,10,0,10,0.02
2013-6-20,82.0,65.4,50.8,56.7,52.2,42.8,99,67,28,30.25,30.14,4,0,4,0.00
2013-6-21,85.1,69.5,57.0,65.3,59.1,53.5,95,71,47,30.26,30.19,4,0,4,0.00
2013-6-22,85.1,69.9,59.2,64.5,58.0,53.6,92,68,43,30.29,30.13,6,0,6,0.00
2013-6-23,91.0,74.6,63.2,71.3,65.9,61.0,95,76,48,30.16,30.02,3,0,6,0.00
2013-6-24,94.7,79.4,68.4,73.2,69.6,66.7,100,76,43,30.03,29.88,11,0,11,0.07
2013-6-25,92.5,77.9,66.8,71.8,68.4,64.8,100,76,41,29.92,29.75,5,0,5,0.01
2013-6-26,90.1,75.9,67.1,74.9,69.2,65.8,97,81,47,30.01,29.72,6,0,6,0.02
2013-6-27,70.6,66.3,64.0,68.1,65.4,63.4,100,97,90,30.01,29.73,5,0,5,0.00
2013-6-28,76.5,70.0,64.2,73.8,69.0,64.2,100,97,82,29.73,29.50,3,0,6,0.59
2013-6-29,83.0,73.4,69.8,72.0,69.3,65.3,100,88,60,29.73,29.51,7,0,7,0.06
2013-6-30,81.6,73.8,69.8,72.6,69.9,67.0,98,88,70,29.97,29.73,4,0,4,0.11
2013-7-1,83.2,73.8,70.3,76.6,72.2,70.0,100,95,75,30.12,29.94,3,0,3,0.16
2013-7-2,81.6,73.9,66.9,74.5,71.1,64.0,100,91,75,30.23,30.08,3,0,3,0.00
2013-7-3,90.5,76.4,65.8,73.5,70.3,63.9,100,83,54,30.35,30.15,5,0,5,0.00
2013-7-4,95.6,81.4,70.4,75.2,72.8,70.0,100,78,47,30.30,30.10,5,0,5,0.00
2013-7-5,96.8,82.4,71.6,75.9,72.8,69.3,98,75,43,30.42,30.05,5,0,5,0.00
2013-7-6,94.9,81.8,72.1,74.7,71.9,68.3,98,74,46,30.07,29.97,5,0,11,0.00
2013-7-7,93.4,78.8,69.4,77.6,72.1,67.2,99,82,49,30.01,29.90,4,0,4,0.10
2013-7-8,89.5,76.3,67.3,76.8,71.5,65.8,100,86,59,30.07,29.91,3,0,6,0.00
2013-7-9,74.9,69.7,65.8,69.6,66.8,65.2,99,91,81,30.08,30.02,3,0,3,0.00
2013-7-10,88.0,74.9,67.4,75.7,71.3,65.8,100,90,60,30.19,29.81,7,0,7,0.00
2013-7-11,77.9,74.3,70.4,75.3,72.8,69.7,100,95,86,29.90,29.78,0,0,0,0.17
2013-7-12,74.2,69.5,65.2,70.2,64.2,60.3,98,84,68,30.17,29.90,10,1,10,0.00
2013-7-13,77.0,69.8,65.0,72.3,68.4,64.0,100,95,81,30.30,30.17,5,0,5,0.04
2013-7-14,89.9,78.3,70.3,78.1,73.3,69.1,100,86,54,30.39,30.19,2,0,2,0.01
2013-7-15,93.2,80.1,70.8,75.4,72.0,67.6,100,79,47,30.23,30.10,1,0,3,0.00
2013-7-16,93.4,80.5,70.1,72.8,69.3,66.1,98,72,42,30.19,30.09,6,0,6,0.00
2013-7-17,96.8,80.0,68.1,74.7,69.9,66.9,98,74,43,30.16,30.02,7,0,7,0.00
2013-7-18,93.2,81.4,72.3,75.4,71.9,68.9,92,75,50,30.02,29.95,6,0,6,0.00
2013-7-19,99.9,84.3,73.2,77.2,74.1,69.5,100,75,39,29.95,29.74,6,0,6,0.00
2013-7-20,98.5,81.3,72.8,77.7,75.1,71.5,100,84,46,29.80,29.64,9,0,10,0.30
2013-7-21,83.8,75.0,67.6,72.4,67.9,62.3,100,80,55,29.98,29.80,6,0,6,0.00
2013-7-22,88.0,73.9,65.6,71.2,67.8,65.0,100,83,51,29.99,29.87,6,0,6,0.00
2013-7-23,83.0,73.9,70.1,78.3,72.4,69.2,100,95,74,29.97,29.53,5,0,6,0.95
2013-7-24,87.4,75.9,69.8,75.8,68.8,57.4,100,80,56,29.92,29.57,7,0,7,0.01
2013-7-25,69.6,62.6,59.9,61.6,57.5,51.4,100,84,62,30.06,29.91,10,0,10,0.16
2013-7-26,67.6,64.1,61.3,67.0,63.9,61.3,100,99,95,30.01,29.89,11,0,11,0.64
2013-7-27,84.9,70.1,59.8,70.6,64.7,59.8,100,85,52,30.15,30.00,3,0,3,0.01
2013-7-28,79.9,71.2,65.6,72.1,69.1,65.0,100,93,74,30.11,29.94,4,0,4,0.01
2013-7-29,80.9,72.6,67.1,75.5,70.1,67.0,100,93,73,30.12,29.96,3,0,3,0.06
2013-7-30,83.6,71.5,61.5,68.8,60.7,54.4,99,72,39,30.08,30.01,6,0,6,0.00
2013-7-31,84.0,70.7,59.8,65.6,60.9,56.0,98,74,44,30.18,30.04,5,0,5,0.00
2013-8-1,83.6,69.8,60.1,67.2,62.5,59.5,100,80,51,30.23,29.89,5,0,5,0.04
2013-8-2,83.8,70.6,62.6,70.9,63.8,57.0,100,82,48,30.08,29.78,7,0,7,0.09
2013-8-3,77.7,70.3,65.0,66.2,63.6,59.7,99,80,59,29.87,29.78,6,0,6,0.00
2013-8-4,83.4,68.2,57.8,60.6,57.6,52.3,96,72,40,29.89,29.75,5,0,5,0.00
2013-8-5,76.8,64.6,54.2,57.6,49.2,38.6,95,61,30,30.03,29.86,11,0,11,0.00
2013-8-6,80.9,64.0,49.5,57.0,52.0,48.1,97,69,34,30.15,30.02,7,0,7,0.00
2013-8-7,84.1,66.0,53.9,64.7,54.8,49.8,100,72,33,30.17,30.12,7,0,7,0.00
2013-8-8,79.8,69.4,59.3,71.2,65.6,54.7,100,88,70,30.15,30.01,4,0,4,0.11
2013-8-9,73.3,72.6,70.4,73.3,71.8,69.5,100,97,91,30.05,29.75,11,0,11,2.70
2013-8-10,84.5,73.7,62.0,73.3,63.0,53.6,100,72,43,30.00,29.78,8,0,8,0.00
2013-8-11,82.4,66.9,54.5,60.6,55.4,48.6,98,70,36,30.06,29.99,3,0,3,0.00
2013-8-12,84.7,69.1,58.1,65.7,60.9,55.0,100,78,39,30.02,29.92,5,0,5,0.00
2013-8-13,72.1,66.5,61.6,69.1,64.6,61.0,100,94,78,29.92,29.68,0,0,3,0.01
2013-8-14,75.8,66.3,58.7,63.5,54.6,49.1,100,69,42,30.00,29.64,10,0,10,0.00
2013-8-15,79.0,64.1,51.7,57.2,52.2,45.8,98,69,33,30.11,29.95,5,0,6,0.00
2013-8-16,81.1,65.2,52.8,59.3,55.1,50.1,99,73,39,30.18,30.09,7,0,7,0.00
2013-8-17,80.7,66.5,53.6,61.6,57.6,53.0,99,76,45,30.27,30.18,6,0,6,0.00
2013-8-18,80.9,66.8,56.3,65.2,60.5,55.5,99,83,45,30.27,30.09,3,0,3,0.00
2013-8-19,84.9,69.0,56.6,64.6,60.3,54.4,98,77,38,30.09,29.95,6,0,6,0.00
2013-8-20,89.3,72.8,61.2,66.4,62.7,56.7,98,73,38,30.09,29.97,4,0,4,0.00
2013-8-21,92.1,73.3,60.7,67.7,64.0,59.8,99,76,35,30.12,30.02,4,0,4,0.00
2013-8-22,84.3,72.0,62.7,72.8,68.0,62.1,99,88,59,30.04,29.82,5,0,5,0.04
2013-8-23,81.6,70.4,60.4,69.4,61.2,54.4,99,74,43,30.09,29.81,7,0,7,0.00
2013-8-24,77.4,64.1,53.1,55.9,49.2,39.9,88,62,27,30.32,30.09,9,0,9,0.00
2013-8-25,87.2,65.4,49.6,57.6,52.1,44.8,99,68,27,30.33,30.19,5,0,5,0.00
2013-8-26,84.0,70.3,60.5,65.7,62.0,56.3,92,76,48,30.19,29.88,6,0,6,0.00
2013-8-27,78.5,70.5,62.9,71.4,67.5,62.3,100,91,64,29.88,29.82,7,0,7,0.12
2013-8-28,85.7,69.1,58.7,68.6,63.9,58.7,100,86,51,29.96,29.84,5,0,5,0.00
2013-8-29,65.0,63.2,59.5,64.8,62.4,57.8,100,97,92,30.05,29.94,8,0,8,0.02
2013-8-30,81.1,67.7,58.1,68.1,63.1,57.3,99,87,60,30.02,29.83,2,0,3,0.00
2013-8-31,79.8,72.9,67.3,73.1,70.4,66.8,100,92,78,29.83,29.79,1,0,1,0.00
2013-9-1,76.8,72.5,69.6,75.9,71.9,69.0,100,98,93,29.90,29.80,3,0,3,0.16
2013-9-2,77.9,73.0,70.1,76.4,72.8,70.1,100,99,93,29.87,29.72,3,0,3,0.66
2013-9-3,80.5,72.0,64.3,72.5,69.6,63.3,100,92,66,29.81,29.67,0,0,0,0.00
2013-9-4,83.6,67.8,57.3,63.3,58.5,54.2,99,76,39,29.91,29.79,9,0,9,0.00
2013-9-5,69.3,60.9,51.3,64.9,58.1,50.5,99,91,70,30.12,29.85,10,0,10,0.09
2013-9-6,71.8,56.2,46.5,50.9,45.4,37.2,98,71,32,30.21,30.08,6,0,6,0.00
2013-9-7,83.2,61.3,45.4,58.1,50.6,44.6,99,72,32,30.08,29.85,3,0,3,0.00
2013-9-8,77.4,64.5,50.8,61.4,53.1,38.3,97,69,37,30.56,29.72,11,0,11,0.00
2013-9-9,71.8,56.0,43.3,51.6,45.4,41.0,95,71,38,30.56,30.06,4,0,4,0.00
2013-9-10,73.9,64.1,50.7,68.7,61.4,49.7,99,91,79,30.47,30.01,4,0,4,0.00
2013-9-11,97.3,77.6,67.4,77.1,71.5,67.4,100,84,49,30.07,29.95,1,0,1,0.00
2013-9-12,88.2,74.9,68.8,72.2,69.8,68.3,99,85,57,30.15,29.67,8,0,8,0.16
2013-9-13,79.8,69.4,60.4,70.1,65.9,55.5,100,89,61,29.99,29.56,5,0,5,0.17
2013-9-14,66.8,60.7,52.3,55.9,53.3,50.5,94,77,63,30.04,29.73,6,0,6,0.00
2013-9-15,75.8,58.5,46.2,55.1,51.2,45.7,100,80,44,30.14,30.03,4,0,4,0.00
2013-9-16,65.3,56.7,49.1,57.3,51.8,38.2,98,85,60,30.20,29.99,9,0,9,0.01
2013-9-17,63.1,50.8,43.5,44.0,39.1,32.4,95,66,37,30.69,30.20,10,0,10,0.00
2013-9-18,77.6,54.8,38.3,51.3,43.8,36.4,100,72,27,30.54,30.14,3,0,3,0.00
2013-9-19,82.2,59.7,44.5,58.5,50.9,43.7,99,77,32,30.37,30.01,3,0,3,0.00
2013-9-20,85.1,61.6,47.6,58.0,52.3,46.8,100,76,32,30.06,29.98,3,0,3,0.00
2013-9-21,76.1,65.5,53.2,65.4,60.4,51.9,100,85,59,30.01,29.73,4,0,7,0.00
2013-9-22,73.7,64.8,52.5,67.5,58.5,46.2,99,82,53,29.80,29.60,6,0,6,0.30
2013-9-23,65.8,53.6,46.0,46.6,42.0,38.5,83,66,43,29.97,29.80,10,0,10,0.00
2013-9-24,67.1,52.9,42.3,48.5,42.3,38.4,91,69,41,29.96,29.78,8,0,8,0.00
2013-9-25,68.3,54.0,42.9,50.0,46.2,42.1,99,77,45,29.95,29.85,7,0,7,0.00
2013-9-26,66.3,56.8,51.6,50.8,48.7,45.0,94,75,50,30.22,29.95,10,0,10,0.00
2013-9-27,67.8,57.4,47.4,53.9,50.4,46.0,96,78,55,30.44,30.09,9,0,9,0.00
2013-9-28,74.2,56.6,44.6,56.4,50.3,43.8,100,82,48,30.54,30.22,6,0,6,0.00
2013-9-29,69.4,53.2,41.5,55.7,47.1,40.5,100,82,47,30.36,30.09,5,0,5,0.00
2013-9-30,68.4,55.9,45.8,56.1,50.2,41.8,100,83,46,30.25,29.94,5,0,5,0.00
2013-10-1,76.5,57.5,42.9,54.3,48.8,42.1,100,77,38,29.94,29.83,7,0,7,0.00
2013-10-2,81.4,63.7,49.8,60.4,55.5,49.3,100,78,44,29.95,29.81,11,0,11,0.00
2013-10-3,80.7,62.0,49.1,55.9,51.0,40.5,100,73,27,30.06,29.94,4,0,4,0.00
2013-10-4,62.6,55.1,46.7,59.9,53.7,45.6,100,95,77,30.33,30.01,3,0,3,0.60
2013-10-5,69.4,60.5,55.4,60.9,57.1,54.1,100,89,66,30.55,30.03,3,0,3,0.00
2013-10-6,59.3,57.8,55.9,58.7,57.3,55.5,100,98,96,30.18,30.09,4,0,4,0.30
2013-10-7,74.4,67.3,57.5,72.0,65.6,56.2,100,95,79,30.10,29.83,9,0,9,0.11
2013-10-8,66.3,57.0,45.8,55.9,46.1,38.8,92,69,42,30.34,29.90,12,0,12,0.00
2013-10-9,62.3,51.0,42.9,46.6,44.2,41.6,96,80,50,30.43,30.33,9,0,9,0.00
2013-10-10,63.7,54.6,46.4,55.3,51.2,45.7,99,89,70,30.33,30.14,6,0,6,0.00
2013-10-11,66.8,57.5,49.5,56.4,52.7,44.3,99,85,62,30.27,30.07,6,0,6,0.00
2013-10-12,61.6,56.1,51.4,57.9,53.3,48.6,100,90,80,30.35,30.11,11,1,11,0.00
2013-10-13,60.2,51.4,40.1,50.3,45.9,38.6,98,83,61,30.42,30.33,9,0,9,0.00
2013-10-14,62.7,47.7,33.7,48.3,41.4,32.7,100,81,47,30.39,30.23,3,0,3,0.00
2013-10-15,69.6,55.2,43.8,53.5,48.2,43.0,100,80,46,30.25,30.16,7,0,7,0.00
2013-10-16,62.6,54.2,45.1,56.7,52.3,44.0,100,94,79,30.46,29.89,5,0,5,0.00
2013-10-17,69.3,60.0,52.8,60.4,57.3,52.8,100,92,69,30.13,29.72,3,0,3,0.00
2013-10-18,67.3,60.1,45.8,62.6,51.4,43.0,100,76,44,29.89,29.60,11,0,11,0.02
2013-10-19,65.2,51.6,38.3,49.5,43.0,37.3,99,75,40,30.10,29.74,3,0,3,0.00
2013-10-20,61.3,51.8,39.2,50.0,39.5,28.9,99,67,30,30.01,29.68,11,0,11,0.00
2013-10-21,65.5,54.6,37.5,43.6,39.6,34.3,92,60,35,30.09,29.99,6,0,6,0.00
2013-10-22,68.9,52.7,38.9,54.5,44.8,37.3,100,77,41,30.23,29.68,5,0,5,0.00
2013-10-23,52.5,45.3,37.2,39.0,35.7,31.5,95,71,46,29.78,29.58,3,0,3,0.00
2013-10-24,52.5,43.3,34.4,36.1,29.6,20.9,90,61,30,29.99,29.61,10,0,10,0.00
2013-10-25,48.6,38.6,30.1,33.8,28.2,24.8,94,68,40,30.15,29.88,10,0,10,0.00
2013-10-26,54.7,41.0,26.6,35.9,30.1,24.1,96,69,35,30.15,29.86,6,0,10,0.00
2013-10-27,55.3,45.2,35.2,41.7,34.5,27.4,97,69,37,30.11,29.81,10,0,10,0.02
2013-10-28,58.3,43.1,30.1,35.2,30.5,23.4,95,64,35,30.32,30.05,10,0,10,0.00
2013-10-29,48.6,38.2,30.0,33.1,27.1,21.9,91,66,36,30.41,30.32,6,0,6,0.00
2013-10-30,50.4,39.5,29.8,45.8,37.7,28.0,98,93,81,30.42,30.17,1,0,1,0.04
2013-10-31,62.1,48.5,32.4,60.4,47.0,31.5,100,95,83,30.42,29.80,6,0,6,0.05
2013-11-1,68.9,62.6,56.0,64.4,59.3,53.4,100,89,77,29.80,29.47,18,2,18,0.14
2013-11-2,64.2,55.3,49.2,53.7,47.3,38.6,99,78,40,29.70,29.58,6,0,6,0.01
2013-11-3,51.9,42.0,33.1,46.5,35.2,17.4,96,78,49,30.39,29.69,9,1,9,0.01
2013-11-4,41.8,33.0,25.6,26.9,21.5,18.0,89,63,44,30.69,30.39,12,1,12,0.00
2013-11-5,47.9,35.9,24.8,31.7,26.6,22.0,90,72,40,30.70,30.51,5,0,5,0.00
2013-11-6,59.0,47.6,34.4,52.3,41.7,30.9,98,81,55,30.57,30.03,9,0,9,0.00
2013-11-7,65.2,54.3,39.5,61.8,52.3,33.9,100,93,73,30.03,29.65,11,0,11,0.47
2013-11-8,48.0,38.4,30.1,34.7,28.1,21.2,94,69,43,30.09,29.80,11,1,11,0.00
2013-11-9,45.2,36.3,27.6,29.3,23.8,19.1,84,62,37,30.19,30.03,9,0,9,0.00
2013-11-10,52.5,44.4,38.2,48.3,37.4,28.9,100,78,55,30.10,29.71,10,0,10,0.13
2013-11-11,50.4,44.6,37.6,37.5,28.5,22.2,69,54,34,30.08,29.84,11,1,11,0.00
2013-11-12,49.6,37.1,27.6,39.0,26.2,14.3,94,66,51,30.16,29.86,11,1,11,0.08
2013-11-13,35.2,28.3,23.5,16.7,14.4,10.1,73,57,37,30.37,30.16,13,1,13,0.00
2013-11-14,49.5,36.6,24.2,25.7,20.1,15.2,77,53,29,30.40,30.03,9,0,9,0.00
2013-11-15,58.6,39.0,27.8,39.1,28.6,19.3,95,69,27,30.19,30.10,6,0,6,0.00
2013-11-16,57.2,42.7,31.8,37.6,33.1,28.2,96,72,39,30.39,30.18,5,0,5,0.00
2013-11-17,61.2,47.6,30.3,57.8,44.8,27.7,100,91,60,30.30,29.83,5,0,5,0.08
2013-11-18,65.3,57.2,44.2,63.2,49.7,33.0,100,79,42,29.83,29.52,13,1,13,0.56
2013-11-19,46.5,39.7,30.7,34.2,22.0,15.6,67,49,35,30.26,29.64,17,1,17,0.00
2013-11-20,41.1,30.6,23.5,17.6,14.9,8.6,76,54,27,30.61,30.26,12,0,12,0.00
2013-11-21,46.7,33.8,22.1,29.7,21.8,15.8,80,63,35,30.62,30.37,5,0,5,0.00
2013-11-22,49.9,43.9,37.6,49.9,42.1,29.4,100,94,73,30.39,29.81,2,0,2,0.24
2013-11-23,46.2,40.9,29.7,46.2,26.7,11.4,100,60,27,29.94,29.76,13,1,13,0.00
2013-11-24,29.5,24.4,20.3,14.5,2.3,-8.1,59,39,22,30.19,29.77,21,2,21,0.00
2013-11-25,32.1,23.7,16.7,17.6,1.5,-8.3,65,39,18,30.35,30.19,10,0,10,0.00
2013-11-26,42.9,37.2,27.9,42.6,25.2,16.6,100,64,40,30.31,30.01,6,0,6,0.20
2013-11-27,61.6,52.6,37.0,61.6,52.3,33.4,100,99,87,30.01,29.18,15,1,15,2.30
2013-11-28,36.9,30.5,21.6,33.4,16.5,5.1,87,57,34,30.43,29.44,17,2,17,0.00
2013-11-29,33.2,26.6,20.0,17.4,12.3,6.8,72,55,37,30.72,30.43,4,0,10,0.00
2013-11-30,34.4,25.3,16.5,23.7,14.8,7.3,76,64,44,30.77,30.42,5,0,5,0.01
2013-12-1,47.6,39.3,30.7,43.2,36.1,23.7,100,89,75,30.53,29.97,5,0,5,0.20
2013-12-2,40.9,38.3,37.0,40.5,37.8,36.0,100,98,94,29.98,29.90,4,0,4,0.00
2013-12-3,46.4,37.8,29.8,37.9,34.2,29.0,99,88,60,29.93,29.82,6,0,6,0.00
2013-12-4,43.6,33.3,26.4,33.3,27.9,25.9,99,83,52,30.19,29.93,6,0,6,0.00
2013-12-5,54.7,43.3,28.8,54.7,41.8,27.3,100,94,81,30.27,29.91,6,0,6,0.01
2013-12-6,55.4,49.2,37.0,55.3,48.0,35.0,100,96,78,30.11,29.84,9,0,9,0.31
2013-12-7,37.0,29.7,26.6,36.2,25.0,18.8,97,82,70,30.43,30.06,10,0,10,0.13
2013-12-8,32.1,28.2,21.1,22.4,17.4,14.0,84,64,48,30.58,30.43,6,0,6,0.01
2013-12-9,40.6,35.3,28.4,40.6,34.4,18.4,100,97,62,30.47,29.86,6,0,6,0.40
2013-12-10,34.3,30.6,24.1,34.0,29.8,18.6,100,97,79,30.02,29.77,7,0,7,0.03
2013-12-11,30.4,25.2,19.2,19.7,18.1,16.5,92,75,59,30.22,29.99,11,1,11,0.00
2013-12-12,24.4,19.6,11.9,16.7,8.3,-0.6,83,63,35,30.26,30.07,14,0,14,0.00
2013-12-13,29.3,22.3,12.4,14.8,9.8,5.3,78,59,44,30.36,29.99,12,1,12,0.00
2013-12-14,29.1,18.9,13.3,28.6,10.7,-1.0,98,71,51,30.58,30.10,11,1,11,0.00
2013-12-15,37.8,29.8,22.2,37.8,28.0,18.3,100,93,77,30.14,29.33,18,2,18,0.02
2013-12-16,28.4,23.3,14.8,21.8,11.6,3.8,93,63,37,30.20,29.75,6,1,14,0.00
2013-12-17,29.8,17.7,5.6,29.3,13.4,1.0,98,83,64,30.26,29.89,10,1,10,0.00
2013-12-18,33.2,25.3,18.6,20.5,18.0,15.3,90,75,51,30.08,29.82,12,1,12,0.00
2013-12-19,43.3,31.0,18.0,27.8,22.6,14.4,91,72,47,30.12,29.94,12,1,12,0.16
2013-12-20,50.2,38.2,28.4,38.9,32.2,25.1,92,80,58,30.11,29.91,6,0,6,0.45
2013-12-21,54.5,46.3,38.3,49.8,44.2,35.9,100,93,75,29.99,29.86,6,0,6,0.48
2013-12-22,61.6,50.0,38.6,60.3,49.1,37.5,100,97,73,30.03,29.78,11,1,11,0.04
2013-12-23,39.9,36.9,34.4,39.9,36.9,34.4,100,100,100,30.06,29.94,9,1,9,0.48
2013-12-24,37.9,32.8,27.5,37.9,23.2,15.2,100,68,50,30.18,30.01,10,1,10,0.00
2013-12-25,27.6,19.8,15.1,18.1,6.1,-0.2,83,55,40,30.54,30.18,6,1,12,0.00
2013-12-26,38.3,28.5,16.7,35.5,24.5,10.9,97,85,71,30.53,30.06,7,0,7,0.06
2013-12-27,34.9,27.0,20.5,22.6,20.0,17.3,93,76,50,30.27,30.18,11,0,11,0.00
2013-12-28,47.0,32.7,23.5,29.2,24.3,19.5,90,73,41,30.22,29.99,12,1,12,0.00
2013-12-29,42.2,35.8,27.9,42.2,34.1,24.5,100,94,79,30.03,29.33,13,1,13,1.27
2013-12-30,40.2,32.9,20.8,37.6,24.8,10.5,100,75,45,30.13,29.49,10,1,10,0.00
2013-12-31,25.4,20.0,15.9,12.6,6.4,-2.2,78,56,39,30.18,30.01,5,0,5,0.00
2014-1-1,28.1,21.7,16.2,13.7,7.8,3.7,74,55,37,30.36,30.18,11,1,11,0.00
2014-1-2,27.2,23.6,8.1,25.5,20.8,4.3,95,89,62,30.34,29.76,22,4,22,0.00